Rushville, MO (64484)

8:41 AM CST on December 05, 2016 (GMT -0600)
South Side | | Change Station

Elev 814 ft 39.71 °N, 94.91 °W | Updated 16 seconds ago

Rain
Rain
37.7 °F
Feels Like 31 °F
N
9.0
Wind Variable Wind from South

Today
High -- | Low -- °F
--% Chance of Precip.
Yesterday
High -- | Low -- °F
Precip. -- in
Pressure 29.90 in
Visibility 10.0 miles
Clouds Clear
Windchill 31 °F
Dew Point 35 °F
Humidity 93%
Rainfall 0.00 in
Snow Depth Not available.
7:25 AM 4:55 PM
Waxing Crescent, 32% visible
METAR KSTJ 051353Z 17008KT 10SM CLR 00/M01 A2988 RMK AO2 SLP124 I1001 T00001006 $
Pressure 29.90 in
Visibility 10.0 miles
Clouds Clear
Windchill 31 °F
Dew Point 35 °F
Humidity 93%
Rainfall 0.00 in
Snow Depth Not available.
7:25 AM 4:55 PM
Waxing Crescent, 32% visible
METAR KSTJ 051353Z 17008KT 10SM CLR 00/M01 A2988 RMK AO2 SLP124 I1001 T00001006 $

10-Day Weather Forecast

Almanac

Astronomy

Dec. 05, 2016 Rise Set
Actual Time
Civil Twilight
Nautical Twilight
Astronomical Twilight
Moon
Length of Visible Light
Length of Day
Tomorrow will be .
, % of the Moon is Illuminated

Today's Extremes

State Highs State Lows

Community

WunderPhotos

Upload Photos

1,955,780 photos uploaded!

WunderBlog® & News

Nearby

Air Quality

  Air Quality AQ Index Pollutant
Not available.

Snow Depth

Station Depth Elevation

Earthquake Activity

City Distance Mag. Time & Date
Minimum magnitude displayed is 2.5.

Coastal Water Temperatures

Place Temperature

Stations

Nearby Weather Stations

Station Location Temp. Windchill Dew Point Humidity Wind Precip. Elev Updated Type
                   

Watches & Warnings

There are currently no watches in effect.